createdAt,value
2022-08-04T00:00:16.185Z,92.80
2022-08-04T00:02:57.520Z,93.20
2022-08-04T00:05:59.945Z,93.60
2022-08-04T00:08:34.158Z,93.70
2022-08-04T00:11:01.373Z,94.10
2022-08-04T00:13:30.819Z,94.20
2022-08-04T00:15:59.122Z,94.30
2022-08-04T00:18:58.489Z,94.50
2022-08-04T00:21:26.403Z,94.30
2022-08-04T00:24:11.869Z,93.90
2022-08-04T00:26:40.244Z,93.90
2022-08-04T00:29:07.099Z,94.50
2022-08-04T00:31:54.744Z,94.60
2022-08-04T00:34:20.822Z,94.60
2022-08-04T00:36:47.670Z,95.20
2022-08-04T00:39:15.074Z,95.30
2022-08-04T00:42:10.981Z,95.60
2022-08-04T00:44:59.497Z,95.70
2022-08-04T00:47:51.374Z,95.20
2022-08-04T00:50:44.398Z,95.40
2022-08-04T00:53:17.324Z,95.80
2022-08-04T00:56:40.130Z,95.80
2022-08-04T00:59:22.126Z,96.40
2022-08-04T01:01:54.961Z,96.30
2022-08-04T01:04:53.008Z,96.40
2022-08-04T01:07:42.849Z,96.50
2022-08-04T01:10:32.551Z,97.10
2022-08-04T01:13:25.700Z,97.00
2022-08-04T01:15:59.466Z,97.30
2022-08-04T01:19:00.267Z,97.40
2022-08-04T01:21:30.194Z,97.60
2022-08-04T01:24:24.821Z,97.70
2022-08-04T01:27:18.991Z,98.00
2022-08-04T01:29:55.773Z,98.10
2022-08-04T01:32:28.539Z,98.00
2022-08-04T01:35:21.945Z,98.00
2022-08-04T01:37:51.949Z,98.10
2022-08-04T01:40:18.848Z,97.80
2022-08-04T01:42:46.238Z,97.60
2022-08-04T01:45:13.444Z,97.70
2022-08-04T01:47:52.074Z,97.30
2022-08-04T01:50:19.113Z,96.70
2022-08-04T01:52:50.523Z,97.20
2022-08-04T01:55:18.348Z,96.50
2022-08-04T01:57:46.839Z,96.70
2022-08-04T02:00:18.727Z,97.00
2022-08-04T02:02:46.190Z,97.70
2022-08-04T02:05:15.678Z,97.80
2022-08-04T02:08:01.945Z,98.40
2022-08-04T02:10:30.839Z,99.20
2022-08-04T02:13:10.654Z,99.90
2022-08-04T02:15:55.622Z,99.90
2022-08-04T02:18:28.510Z,99.90
2022-08-04T02:21:00.684Z,99.60
2022-08-04T02:23:43.195Z,99.90
2022-08-04T02:26:22.506Z,99.60
2022-08-04T02:29:03.833Z,99.10
2022-08-04T02:31:36.556Z,99.60
2022-08-04T02:34:10.294Z,99.90
2022-08-04T02:36:41.412Z,99.90
2022-08-04T02:39:12.087Z,99.90
2022-08-04T02:41:40.187Z,99.90
2022-08-04T02:44:10.425Z,99.90
2022-08-04T02:46:38.400Z,99.90
2022-08-04T02:49:07.425Z,99.90
2022-08-04T02:51:41.476Z,99.90
2022-08-04T02:54:08.669Z,99.90
2022-08-04T02:56:37.457Z,99.90
2022-08-04T02:59:08.251Z,99.90
2022-08-04T03:01:35.295Z,99.90
2022-08-04T03:04:31.532Z,99.90
2022-08-04T03:06:58.314Z,99.90
2022-08-04T03:09:46.794Z,99.90
2022-08-04T03:12:20.034Z,99.90
2022-08-04T03:14:55.189Z,99.90
2022-08-04T03:17:22.272Z,99.90
2022-08-04T03:20:18.654Z,99.90
2022-08-04T03:23:13.397Z,99.90
2022-08-04T03:26:05.443Z,99.90
2022-08-04T03:28:41.244Z,99.90
2022-08-04T03:31:29.020Z,99.90
2022-08-04T03:34:11.126Z,99.90
2022-08-04T03:36:55.082Z,99.90
2022-08-04T03:39:46.847Z,99.90
2022-08-04T03:42:31.688Z,99.90
2022-08-04T03:45:37.615Z,99.90
2022-08-04T03:53:08.927Z,99.90
2022-08-04T03:55:54.695Z,99.90
2022-08-04T03:58:47.702Z,99.90
2022-08-04T04:02:02.846Z,99.90
2022-08-04T04:05:01.256Z,99.90
2022-08-04T04:07:59.602Z,99.90
2022-08-04T04:10:55.444Z,99.90
2022-08-04T04:13:22.201Z,99.90
2022-08-04T04:16:29.352Z,99.90
2022-08-04T04:19:10.305Z,99.90
2022-08-04T04:22:03.024Z,99.90
2022-08-04T04:24:56.421Z,99.90
2022-08-04T04:27:29.175Z,99.90
2022-08-04T04:30:05.572Z,99.90
2022-08-04T04:32:46.574Z,99.90
2022-08-04T04:35:22.191Z,99.90
2022-08-04T04:38:07.661Z,99.90
2022-08-04T04:40:42.435Z,99.90
2022-08-04T04:43:50.919Z,99.90
2022-08-04T04:46:42.942Z,99.90
2022-08-04T04:49:43.797Z,99.90
2022-08-04T04:52:22.908Z,99.90
2022-08-04T04:54:58.485Z,99.90
2022-08-04T04:57:54.139Z,99.90
2022-08-04T05:00:16.181Z,99.90
2022-08-04T05:03:09.199Z,99.90
2022-08-04T05:06:03.497Z,99.90
2022-08-04T05:08:52.483Z,99.90
2022-08-04T05:11:54.342Z,99.90
2022-08-04T05:14:41.400Z,99.90
2022-08-04T05:17:11.552Z,99.90
2022-08-04T05:19:53.998Z,99.90
2022-08-04T05:22:28.991Z,99.90
2022-08-04T05:25:10.125Z,99.90
2022-08-04T05:27:51.819Z,99.90
2022-08-04T05:30:18.749Z,99.90
2022-08-04T05:32:59.163Z,99.90
2022-08-04T05:35:52.066Z,99.90
2022-08-04T05:38:27.531Z,99.90
2022-08-04T05:40:54.803Z,99.90
2022-08-04T05:43:23.519Z,99.90
2022-08-04T05:45:51.435Z,99.90
2022-08-04T05:48:20.393Z,99.90
2022-08-04T05:50:47.328Z,99.90
2022-08-04T05:53:14.371Z,99.90
2022-08-04T05:55:57.116Z,99.90
2022-08-04T05:58:27.321Z,99.90
2022-08-04T06:00:54.147Z,99.90
2022-08-04T06:03:21.104Z,99.90
2022-08-04T06:05:48.206Z,99.90
2022-08-04T06:08:15.036Z,99.90
2022-08-04T06:10:41.966Z,99.90
2022-08-04T06:13:46.688Z,99.90
2022-08-04T06:15:59.017Z,99.90
2022-08-04T06:18:42.180Z,99.90
2022-08-04T06:21:16.012Z,99.30
2022-08-04T06:23:53.731Z,98.90
2022-08-04T06:26:28.933Z,97.90
2022-08-04T06:28:55.947Z,97.50
2022-08-04T06:32:30.375Z,97.00
2022-08-04T06:34:29.077Z,96.10
2022-08-04T06:36:56.077Z,95.20
2022-08-04T06:39:24.233Z,94.60
2022-08-04T06:46:16.526Z,92.60
2022-08-04T06:48:43.578Z,91.80
2022-08-04T06:55:39.333Z,90.60
2022-08-04T06:58:06.322Z,90.20
2022-08-04T07:00:33.171Z,89.10
2022-08-04T07:03:00.310Z,88.40
2022-08-04T07:05:27.237Z,87.30
2022-08-04T07:07:57.592Z,86.00
2022-08-04T07:10:28.943Z,85.20
2022-08-04T07:12:59.966Z,84.30
2022-08-04T07:15:27.652Z,83.40
2022-08-04T07:17:55.106Z,82.10
2022-08-04T07:20:35.426Z,82.00
2022-08-04T07:23:07.317Z,80.00
2022-08-04T07:26:00.954Z,77.50
2022-08-04T07:28:28.511Z,76.50
2022-08-04T07:30:59.789Z,74.30
2022-08-04T07:33:26.658Z,72.60
2022-08-04T07:36:09.391Z,68.50
2022-08-04T07:38:48.634Z,67.20
2022-08-04T07:41:37.086Z,65.30
2022-08-04T07:44:06.697Z,61.80
2022-08-04T07:46:33.583Z,59.90
2022-08-04T07:49:00.987Z,58.50
2022-08-04T07:51:32.256Z,57.10
2022-08-04T07:54:00.351Z,55.40
2022-08-04T07:56:27.370Z,54.30
2022-08-04T07:58:54.921Z,51.50
2022-08-04T08:01:22.671Z,50.30
2022-08-04T08:03:50.031Z,49.50
2022-08-04T08:06:33.190Z,49.40
2022-08-04T08:09:13.628Z,49.70
2022-08-04T08:12:38.441Z,49.40
2022-08-04T08:14:31.973Z,49.00
2022-08-04T08:17:00.233Z,47.60
2022-08-04T08:19:27.134Z,46.50
2022-08-04T08:21:59.556Z,45.60
2022-08-04T08:24:31.096Z,45.00
2022-08-04T08:26:58.550Z,43.20
2022-08-04T08:29:25.964Z,42.60
2022-08-04T08:31:55.933Z,42.50
2022-08-04T08:34:28.034Z,41.50
2022-08-04T08:37:05.178Z,41.40
2022-08-04T08:39:46.094Z,41.00
2022-08-04T08:42:36.223Z,40.40
2022-08-04T08:45:12.080Z,39.10
2022-08-04T08:48:18.207Z,39.00
2022-08-04T08:50:57.054Z,39.10
2022-08-04T08:53:32.950Z,38.70
2022-08-04T08:56:18.292Z,38.80
2022-08-04T08:59:23.289Z,37.80
2022-08-04T09:02:17.688Z,37.30
2022-08-04T09:05:07.548Z,37.60
2022-08-04T09:07:54.802Z,37.40
2022-08-04T09:10:21.805Z,37.20
2022-08-04T09:13:08.666Z,37.10
2022-08-04T09:15:54.485Z,37.00
2022-08-04T09:18:41.508Z,37.00
2022-08-04T09:21:26.758Z,36.20
2022-08-04T09:24:36.707Z,36.70
2022-08-04T09:27:15.688Z,36.10
2022-08-04T09:30:02.960Z,35.50
2022-08-04T09:32:38.934Z,35.50
2022-08-04T09:35:47.651Z,35.20
2022-08-04T09:38:14.484Z,35.30
2022-08-04T09:41:39.468Z,35.20
2022-08-04T09:44:52.475Z,35.00
2022-08-04T09:47:40.364Z,35.40
2022-08-04T09:50:20.135Z,35.60
2022-08-04T09:52:49.355Z,35.40
2022-08-04T09:55:53.223Z,35.30
2022-08-04T09:58:42.818Z,34.80
2022-08-04T10:01:11.799Z,34.60
2022-08-04T10:03:41.334Z,33.80
2022-08-04T10:06:30.152Z,33.60
2022-08-04T10:09:15.027Z,33.90
2022-08-04T10:12:05.902Z,34.30
2022-08-04T10:14:32.968Z,33.50
2022-08-04T10:17:29.001Z,33.40
2022-08-04T10:20:10.670Z,33.00
2022-08-04T10:23:02.210Z,32.50
2022-08-04T10:26:05.661Z,32.40
2022-08-04T10:28:26.704Z,31.80
2022-08-04T10:30:56.271Z,32.00
2022-08-04T10:33:33.629Z,32.40
2022-08-04T10:36:03.161Z,32.50
2022-08-04T10:38:31.858Z,32.30
2022-08-04T10:41:54.200Z,31.80
2022-08-04T10:45:04.483Z,32.10
2022-08-04T10:47:34.514Z,31.70
2022-08-04T10:50:02.142Z,31.40
2022-08-04T10:52:38.582Z,31.20
2022-08-04T10:55:21.916Z,30.30
2022-08-04T10:58:06.151Z,30.20
2022-08-04T11:00:35.961Z,30.50
2022-08-04T11:03:38.708Z,30.90
2022-08-04T11:06:05.932Z,31.00
2022-08-04T11:08:41.283Z,29.70
2022-08-04T11:11:13.929Z,29.10
2022-08-04T11:13:49.986Z,28.90
2022-08-04T11:16:24.717Z,29.30
2022-08-04T11:19:44.966Z,29.10
2022-08-04T11:22:23.745Z,28.90
2022-08-04T11:25:02.721Z,29.10
2022-08-04T11:27:44.960Z,29.00
2022-08-04T11:30:13.729Z,29.00
2022-08-04T11:33:07.988Z,29.00
2022-08-04T11:35:36.010Z,29.00
2022-08-04T11:38:09.651Z,29.00
2022-08-04T11:40:55.776Z,29.30
2022-08-04T11:44:03.258Z,29.00
2022-08-04T11:46:40.091Z,28.80
2022-08-04T11:49:28.589Z,29.00
2022-08-04T11:51:56.604Z,28.70
2022-08-04T11:54:23.539Z,29.10
2022-08-04T11:56:50.813Z,29.20
2022-08-04T11:59:17.856Z,29.00
2022-08-04T12:01:57.489Z,28.90
2022-08-04T12:05:00.137Z,28.70
2022-08-04T12:07:42.017Z,28.60
2022-08-04T12:10:41.855Z,28.90
2022-08-04T12:13:35.578Z,29.10
2022-08-04T12:16:17.775Z,28.80
2022-08-04T12:18:53.306Z,28.50
2022-08-04T12:21:29.667Z,28.50
2022-08-04T12:24:01.779Z,28.10
2022-08-04T12:26:32.668Z,28.10
2022-08-04T12:29:10.448Z,28.40
2022-08-04T12:31:49.990Z,27.70
2022-08-04T12:34:24.886Z,27.70
2022-08-04T12:37:03.562Z,27.60
2022-08-04T12:39:30.606Z,27.70
2022-08-04T12:42:21.377Z,27.60
2022-08-04T12:44:54.156Z,27.70
2022-08-04T12:47:29.041Z,27.70
2022-08-04T12:50:02.277Z,27.40
2022-08-04T12:53:01.113Z,27.50
2022-08-04T12:55:30.405Z,27.30
2022-08-04T12:57:58.093Z,27.20
2022-08-04T13:00:39.686Z,26.90
2022-08-04T13:03:12.762Z,26.20
2022-08-04T13:05:40.916Z,24.40
2022-08-04T13:08:08.162Z,22.90
2022-08-04T13:10:38.520Z,22.80
2022-08-04T13:13:05.541Z,22.90
2022-08-04T13:15:47.601Z,22.70
2022-08-04T13:18:24.986Z,22.40
2022-08-04T13:20:56.368Z,22.70
2022-08-04T13:23:23.348Z,23.10
2022-08-04T13:26:42.491Z,22.80
2022-08-04T13:28:44.119Z,22.20
2022-08-04T13:31:21.989Z,21.60
2022-08-04T13:33:50.307Z,22.00
2022-08-04T13:36:19.263Z,22.20
2022-08-04T13:38:55.392Z,22.30
2022-08-04T13:41:26.471Z,22.80
2022-08-04T13:44:18.414Z,23.10
2022-08-04T13:46:53.746Z,23.00
2022-08-04T13:49:37.637Z,22.80
2022-08-04T13:52:11.146Z,22.70
2022-08-04T13:54:46.061Z,22.90
2022-08-04T13:57:17.606Z,23.00
2022-08-04T13:59:48.769Z,22.60
2022-08-04T14:02:29.031Z,22.60
2022-08-04T14:04:57.350Z,22.20
2022-08-04T14:07:25.629Z,22.20
2022-08-04T14:10:02.852Z,22.30
2022-08-04T14:12:45.722Z,22.40
2022-08-04T14:16:03.093Z,22.00
2022-08-04T14:18:24.093Z,22.10
2022-08-04T14:21:05.329Z,22.20
2022-08-04T14:23:48.193Z,21.80
2022-08-04T14:26:32.414Z,21.80
2022-08-04T14:29:27.421Z,21.70
2022-08-04T14:32:12.784Z,21.20
2022-08-04T14:34:45.309Z,21.30
2022-08-04T14:37:20.886Z,20.80
2022-08-04T14:40:07.907Z,21.10
2022-08-04T14:42:54.726Z,20.80
2022-08-04T14:45:54.365Z,21.40
2022-08-04T14:48:22.429Z,21.60
2022-08-04T14:50:50.449Z,21.70
2022-08-04T14:53:19.827Z,21.00
2022-08-04T14:55:51.397Z,20.80
2022-08-04T14:58:36.578Z,20.70
2022-08-04T15:01:10.641Z,20.80
2022-08-04T15:03:51.060Z,21.10
2022-08-04T15:06:26.469Z,21.10
2022-08-04T15:08:55.355Z,20.20
2022-08-04T15:11:24.284Z,20.50
2022-08-04T15:13:55.691Z,20.50
2022-08-04T15:16:23.655Z,20.50
2022-08-04T15:18:51.219Z,20.50
2022-08-04T15:21:22.557Z,20.20
2022-08-04T15:23:50.652Z,19.60
2022-08-04T15:26:23.492Z,19.80
2022-08-04T15:28:56.169Z,20.00
2022-08-04T15:32:06.962Z,20.00
2022-08-04T15:34:11.460Z,20.50
2022-08-04T15:36:57.011Z,20.10
2022-08-04T15:40:06.872Z,19.50
2022-08-04T15:42:41.713Z,20.30
2022-08-04T15:45:23.834Z,20.00
2022-08-04T15:48:14.113Z,21.20
2022-08-04T15:50:58.792Z,20.00
2022-08-04T15:54:01.821Z,20.70
2022-08-04T15:56:26.373Z,20.30
2022-08-04T15:58:54.994Z,21.10
2022-08-04T16:01:22.167Z,19.90
2022-08-04T16:03:59.495Z,19.90
2022-08-04T16:06:29.928Z,20.40
2022-08-04T16:09:04.163Z,20.20
2022-08-04T16:11:35.072Z,21.50
2022-08-04T16:14:02.004Z,20.60
2022-08-04T16:16:47.962Z,20.00
2022-08-04T16:19:51.746Z,20.10
2022-08-04T16:22:36.375Z,19.30
2022-08-04T16:25:03.690Z,20.30
2022-08-04T16:27:43.820Z,19.70
2022-08-04T16:30:14.486Z,19.60
2022-08-04T16:32:43.371Z,20.70
2022-08-04T16:35:21.703Z,20.40
2022-08-04T16:37:48.633Z,22.80
2022-08-04T16:40:37.109Z,24.40
2022-08-04T16:43:13.373Z,26.20
2022-08-04T16:45:44.849Z,27.40
2022-08-04T16:48:12.327Z,28.50
2022-08-04T16:51:09.748Z,29.30
2022-08-04T16:53:52.005Z,30.70
2022-08-04T16:56:28.144Z,31.80
2022-08-04T16:58:55.055Z,33.00
2022-08-04T17:01:32.914Z,34.10
2022-08-04T17:04:05.065Z,35.20
2022-08-04T17:06:39.954Z,36.00
2022-08-04T17:09:14.641Z,36.90
2022-08-04T17:11:42.650Z,37.90
2022-08-04T17:14:09.608Z,37.90
2022-08-04T17:16:38.235Z,38.50
2022-08-04T17:19:05.615Z,39.30
2022-08-04T17:21:33.798Z,39.60
2022-08-04T17:24:12.800Z,40.40
2022-08-04T17:26:52.019Z,41.10
2022-08-04T17:29:44.127Z,41.40
2022-08-04T17:32:19.776Z,41.30
2022-08-04T17:34:51.027Z,41.40
2022-08-04T17:37:38.889Z,41.50
2022-08-04T17:40:22.578Z,41.70
2022-08-04T17:44:02.765Z,42.20
2022-08-04T17:46:29.554Z,42.40
2022-08-04T17:49:00.960Z,42.50
2022-08-04T17:52:02.962Z,42.60
2022-08-04T17:54:29.968Z,42.40
2022-08-04T17:57:13.525Z,42.20
2022-08-04T17:59:52.945Z,42.40
2022-08-04T18:02:32.302Z,42.50
2022-08-04T18:05:06.758Z,41.90
2022-08-04T18:08:34.667Z,42.40
2022-08-04T18:10:54.648Z,43.10
2022-08-04T18:13:27.209Z,43.50
2022-08-04T18:16:04.802Z,44.30
2022-08-04T18:18:32.157Z,44.20
2022-08-04T18:21:02.936Z,44.50
2022-08-04T18:23:32.754Z,44.70
2022-08-04T18:26:02.347Z,44.90
2022-08-04T18:28:30.728Z,45.20
2022-08-04T18:31:00.047Z,45.50
2022-08-04T18:33:40.677Z,45.70
2022-08-04T18:36:34.312Z,46.00
2022-08-04T18:39:13.222Z,46.10
2022-08-04T18:42:02.527Z,45.50
2022-08-04T18:44:31.613Z,46.20
2022-08-04T18:47:22.749Z,46.30
2022-08-04T18:50:40.055Z,46.50
2022-08-04T18:52:33.386Z,46.80
2022-08-04T18:55:01.929Z,46.60
2022-08-04T18:58:27.481Z,46.50
2022-08-04T19:00:56.080Z,46.80
2022-08-04T19:03:27.214Z,47.50
2022-08-04T19:05:59.911Z,47.00
2022-08-04T19:08:34.551Z,46.80
2022-08-04T19:11:35.232Z,47.30
2022-08-04T19:13:54.681Z,47.60
2022-08-04T19:16:27.151Z,48.00
2022-08-04T19:18:55.602Z,48.20
2022-08-04T19:22:01.461Z,48.20
2022-08-04T19:24:32.793Z,49.20
2022-08-04T19:27:01.930Z,48.40
2022-08-04T19:30:03.677Z,49.00
2022-08-04T19:32:32.585Z,50.20
2022-08-04T19:35:00.236Z,49.70
2022-08-04T19:37:56.304Z,48.80
2022-08-04T19:40:33.677Z,50.20
2022-08-04T19:43:14.415Z,50.30
2022-08-04T19:45:51.963Z,50.40
2022-08-04T19:48:30.673Z,50.00
2022-08-04T19:54:16.767Z,51.10
2022-08-04T19:56:51.708Z,50.90
2022-08-04T19:59:19.002Z,50.40
2022-08-04T20:01:46.561Z,50.20
2022-08-04T20:04:16.647Z,50.80
2022-08-04T20:06:44.079Z,51.40
2022-08-04T20:09:26.351Z,52.40
2022-08-04T20:12:07.151Z,52.50
2022-08-04T20:15:17.301Z,51.70
2022-08-04T20:18:08.487Z,51.40
2022-08-04T20:20:32.275Z,52.80
2022-08-04T20:22:59.894Z,52.20
2022-08-04T20:25:36.334Z,51.60
2022-08-04T20:28:06.991Z,52.50
2022-08-04T20:30:34.099Z,53.10
2022-08-04T20:33:04.117Z,53.50
2022-08-04T20:35:32.675Z,53.70
2022-08-04T20:38:33.138Z,53.20
2022-08-04T20:41:01.991Z,53.10
2022-08-04T20:43:31.327Z,52.70
2022-08-04T20:45:59.664Z,53.40
2022-08-04T20:48:33.612Z,53.70
2022-08-04T20:51:01.106Z,53.90
2022-08-04T20:53:46.898Z,54.20
2022-08-04T20:56:19.125Z,54.70
2022-08-04T20:58:59.162Z,54.60
2022-08-04T21:01:29.487Z,55.10
2022-08-04T21:04:27.780Z,55.00
2022-08-04T21:06:59.709Z,54.40
2022-08-04T21:09:38.005Z,54.60
2022-08-04T21:12:10.871Z,55.50
2022-08-04T21:14:54.314Z,55.20
2022-08-04T21:17:56.721Z,56.00
2022-08-04T21:20:14.091Z,56.00
2022-08-04T21:22:41.567Z,56.00
2022-08-04T21:25:14.518Z,57.20
2022-08-04T21:27:44.620Z,56.70
2022-08-04T21:30:25.955Z,56.60
2022-08-04T21:32:55.282Z,56.70
2022-08-04T21:35:37.006Z,56.90
2022-08-04T21:38:16.517Z,57.40
2022-08-04T21:40:53.665Z,57.80
2022-08-04T21:43:23.511Z,58.10
2022-08-04T21:45:54.385Z,58.50
2022-08-04T21:48:21.805Z,58.70
2022-08-04T21:50:50.562Z,58.50
2022-08-04T21:53:19.702Z,58.90
2022-08-04T21:56:04.961Z,58.70
2022-08-04T21:58:34.990Z,58.70
2022-08-04T22:01:12.606Z,59.00
2022-08-04T22:03:52.657Z,59.30
2022-08-04T22:06:28.745Z,59.50
2022-08-04T22:08:56.918Z,59.80
2022-08-04T22:11:48.830Z,59.80
2022-08-04T22:14:27.171Z,59.70
2022-08-04T22:16:59.168Z,59.90
2022-08-04T22:19:50.105Z,60.90
2022-08-04T22:22:25.372Z,60.70
2022-08-04T22:24:55.074Z,60.80
2022-08-04T22:27:40.658Z,61.90
2022-08-04T22:30:17.654Z,61.20
2022-08-04T22:32:46.443Z,61.10
2022-08-04T22:35:36.484Z,61.40
2022-08-04T22:38:07.743Z,61.00
2022-08-04T22:40:50.075Z,61.70
2022-08-04T22:43:31.933Z,63.00
2022-08-04T22:45:59.924Z,63.30
2022-08-04T22:48:29.115Z,64.00
2022-08-04T22:50:59.793Z,65.60
2022-08-04T22:53:26.851Z,66.00
2022-08-04T22:56:07.096Z,65.70
2022-08-04T22:58:45.444Z,66.00
2022-08-04T23:01:17.225Z,65.50
2022-08-04T23:03:51.031Z,66.10
2022-08-04T23:06:24.439Z,66.50
2022-08-04T23:08:51.757Z,66.80
2022-08-04T23:11:18.940Z,68.60
2022-08-04T23:13:47.345Z,67.00
2022-08-04T23:16:17.131Z,68.30
2022-08-04T23:18:45.245Z,68.20
2022-08-04T23:21:15.359Z,68.90
2022-08-04T23:23:55.447Z,69.00
2022-08-04T23:26:29.558Z,69.40
2022-08-04T23:28:56.583Z,70.10
2022-08-04T23:31:36.636Z,70.30
2022-08-04T23:34:08.800Z,68.80
2022-08-04T23:36:35.756Z,69.50
2022-08-04T23:39:04.207Z,71.00
2022-08-04T23:41:50.927Z,70.50
2022-08-04T23:44:24.888Z,71.50
2022-08-04T23:47:02.732Z,70.90
2022-08-04T23:49:44.121Z,68.90
2022-08-04T23:52:27.731Z,66.60
2022-08-04T23:54:59.049Z,67.20
2022-08-04T23:57:31.151Z,67.40
